Strona główna
METAR-TAF:

METAR-TAF

Lotnisko :

Port lotniczy Kerteh

Kerteh, Malezja

Szerokość geograficzna: 04-32-15N, Długość geograficzna: 103-25-36E, wysokość: 5 m

Aktualna obserwacja pogody

Raport powstał 1 godzina i 3 minut temu, godzina 01:00 UTC
Wiatr 4 kt od południe, zmienny między wschód i zachodnio-południowy zachód
Temperatura 29°C
Wilgotność 84%
Ciśnienie 1009 hPa
Widzialność 10 km lub więcej
Mało chmury na wysokości 1500 ft
Przerywane chmury na wysokości 26000 ft

METAR: WMKE 260100Z 17004KT 100V250 9999 FEW015 BKN260 29/26 Q1009

czas: 10:03 (02:03 UTC)

Prognoza

Raport powstał 3 godziny i 3 minut temu, godzina 23:00 UTC
Prognoza ważna od 26 godzina 00 UTC do 27 godzina 00 UTC
Wiatr 3 kt z kierunków zmiennych
Widzialność 10 km lub więcej
Mało chmury na wysokości 1500 ft
Rozproszone chmury na wysokości 14000 ft
Przerywane chmury na wysokości 26000 ft

TAF: WMKE 252300Z 2600/2700 VRB03KT 9999 FEW015 SCT140 BKN260

Obserwacja i prognoza pogody dla ponad 4000 lotnisk (raport METAR i TAF).

Dostępne stacje oznaczono żółtymi i czerwonymi punktami na mapie.

Najedź kursorem aby zobaczyć nazwę stacji.

Kliknij aby zobaczyć obserwacje i prognozy pogody.

Aby zmienić mapę: kliknij na zielony przycisk z czarnym krzyżykiem, aby powiększyć; na zielony przycisk z myślnikiem, aby pomniejszyć; na zielone strzałki, aby przejść do map sąsiednich.


METAR-TAF: